Time;durP1;ratioP1;P1;durP2;ratioP2;P2;SDS_P1;SDS_P2;PMS_P1;PMS_P2;Temp;Humidity;BMP_temperature;BMP_pressure;BME280_temperature;BME280_humidity;BME280_pressure;Samples;Min_cycle;Max_cycle;Signal;HPM_P1;HPM_P2
2021/08/31 00:01:41;;;;;;;30.85;15.95;;;14.30;99.90;;;;;;5013692;28;20029;-75
2021/08/31 00:04:07;;;;;;;34.20;16.58;;;14.30;99.90;;;;;;5012639;28;20124;-75
2021/08/31 00:06:32;;;;;;;30.17;16.05;;;14.30;99.90;;;;;;5013634;28;20032;-74
2021/08/31 00:08:58;;;;;;;24.90;16.40;;;14.30;99.90;;;;;;5013571;28;20022;-74
2021/08/31 00:11:24;;;;;;;26.73;16.48;;;14.20;99.90;;;;;;5012988;28;20029;-75
2021/08/31 00:13:50;;;;;;;36.47;16.95;;;14.30;99.90;;;;;;5013192;28;20025;-74
2021/08/31 00:16:16;;;;;;;31.25;17.30;;;14.20;99.90;;;;;;5012601;28;20026;-75
2021/08/31 00:18:43;;;;;;;27.40;16.33;;;14.20;99.90;;;;;;5013118;28;20041;-75
2021/08/31 00:21:09;;;;;;;29.88;17.08;;;14.20;99.90;;;;;;5013501;28;20022;-75
2021/08/31 00:23:34;;;;;;;31.67;18.65;;;14.20;99.90;;;;;;5011927;28;20637;-75
2021/08/31 00:26:00;;;;;;;30.00;16.63;;;14.10;99.90;;;;;;5013294;28;20060;-75
2021/08/31 00:28:25;;;;;;;25.35;15.35;;;14.10;99.90;;;;;;5012698;28;20042;-75
2021/08/31 00:30:51;;;;;;;29.65;16.45;;;14.10;99.90;;;;;;5012221;28;20026;-73
2021/08/31 00:33:17;;;;;;;28.42;17.55;;;14.10;99.90;;;;;;5012510;28;20125;-73
2021/08/31 00:35:42;;;;;;;31.42;17.75;;;14.10;99.90;;;;;;5012513;28;20014;-75
2021/08/31 00:38:08;;;;;;;31.08;15.98;;;14.10;99.90;;;;;;5012203;28;20026;-74
2021/08/31 00:40:34;;;;;;;27.08;15.82;;;14.00;99.90;;;;;;5012482;28;20068;-74
2021/08/31 00:43:01;;;;;;;33.55;17.70;;;14.10;99.90;;;;;;5012707;28;20037;-75
2021/08/31 00:45:27;;;;;;;27.17;17.25;;;14.10;99.90;;;;;;5011778;28;20044;-74
2021/08/31 00:47:53;;;;;;;33.97;17.05;;;14.10;99.90;;;;;;5012598;28;20042;-76
2021/08/31 00:50:19;;;;;;;35.65;19.10;;;14.10;99.90;;;;;;5012417;28;20061;-74
2021/08/31 00:52:45;;;;;;;32.38;17.13;;;14.10;99.90;;;;;;5011616;28;20033;-75
2021/08/31 00:55:11;;;;;;;29.08;17.55;;;14.10;99.90;;;;;;5012703;28;20022;-75
2021/08/31 00:57:40;;;;;;;27.33;16.42;;;14.10;99.90;;;;;;5012144;28;20026;-75
2021/08/31 01:00:12;;;;;;;33.08;17.08;;;14.10;99.90;;;;;;5012140;28;20100;-76
2021/08/31 01:02:38;;;;;;;29.98;16.92;;;14.00;99.90;;;;;;5012168;28;20018;-76
2021/08/31 01:05:05;;;;;;;34.15;18.00;;;14.10;99.90;;;;;;5012459;28;20113;-74
2021/08/31 01:07:32;;;;;;;26.38;17.30;;;14.00;99.90;;;;;;5011216;28;20125;-75
2021/08/31 01:10:00;;;;;;;31.65;17.67;;;14.00;99.90;;;;;;5012683;28;20021;-75
2021/08/31 01:12:27;;;;;;;32.58;17.30;;;14.00;99.90;;;;;;5012870;28;20084;-75
2021/08/31 01:14:53;;;;;;;33.80;18.35;;;14.00;99.90;;;;;;5012718;28;20470;-75
2021/08/31 01:17:20;;;;;;;35.65;18.58;;;14.00;99.90;;;;;;5015901;28;20026;-74
2021/08/31 01:19:46;;;;;;;31.40;17.83;;;14.00;99.90;;;;;;5011613;28;20092;-74
2021/08/31 01:22:12;;;;;;;33.58;17.70;;;13.90;99.90;;;;;;5012511;28;20462;-74
2021/08/31 01:24:42;;;;;;;42.15;19.58;;;13.90;99.90;;;;;;5011945;28;20044;-76
2021/08/31 01:27:09;;;;;;;30.02;16.13;;;13.80;99.90;;;;;;5013600;28;20129;-75
2021/08/31 01:29:35;;;;;;;55.70;19.52;;;13.80;99.90;;;;;;5013844;28;20108;-75
2021/08/31 01:32:02;;;;;;;26.77;15.60;;;13.70;99.90;;;;;;5012330;28;20041;-75
2021/08/31 01:34:27;;;;;;;27.95;17.92;;;13.70;99.90;;;;;;5011430;28;20084;-74
2021/08/31 01:36:54;;;;;;;31.73;17.42;;;13.60;99.90;;;;;;5012033;28;20029;-74
2021/08/31 01:39:19;;;;;;;31.67;18.17;;;13.60;99.90;;;;;;5012271;28;20053;-75
2021/08/31 01:41:45;;;;;;;31.40;18.45;;;13.60;99.90;;;;;;5011561;28;20064;-75
2021/08/31 01:44:11;;;;;;;30.42;19.40;;;13.60;99.90;;;;;;5013642;28;20029;-74
2021/08/31 01:46:36;;;;;;;35.13;18.85;;;13.60;99.90;;;;;;5016442;28;20022;-74
2021/08/31 01:49:02;;;;;;;36.55;19.02;;;13.60;99.90;;;;;;5014875;28;20386;-75
2021/08/31 01:51:28;;;;;;;36.65;18.88;;;13.60;99.90;;;;;;5015658;28;20056;-75
2021/08/31 01:53:54;;;;;;;24.80;16.67;;;13.60;99.90;;;;;;5015845;28;20030;-75
2021/08/31 01:56:20;;;;;;;33.67;18.27;;;13.60;99.90;;;;;;5015516;28;20025;-74
2021/08/31 01:58:45;;;;;;;37.13;18.85;;;13.60;99.90;;;;;;5015859;28;20029;-74
2021/08/31 02:01:11;;;;;;;37.38;20.92;;;13.60;99.90;;;;;;5016234;28;20029;-73
2021/08/31 02:03:37;;;;;;;29.80;18.48;;;13.60;99.90;;;;;;5014924;28;20103;-73
2021/08/31 02:06:02;;;;;;;37.85;20.73;;;13.60;99.90;;;;;;5015615;28;20034;-74
2021/08/31 02:08:28;;;;;;;39.17;19.52;;;13.60;99.90;;;;;;5015144;28;20030;-74
2021/08/31 02:10:56;;;;;;;38.45;19.88;;;13.60;99.90;;;;;;5014691;28;20022;-74
2021/08/31 02:13:22;;;;;;;33.83;19.75;;;13.60;99.90;;;;;;5015391;28;20026;-73
2021/08/31 02:15:48;;;;;;;39.60;19.98;;;13.60;99.90;;;;;;5013886;28;20579;-73
2021/08/31 02:18:13;;;;;;;48.08;21.50;;;13.60;99.90;;;;;;5015149;28;20536;-73
2021/08/31 02:20:39;;;;;;;38.08;20.23;;;13.60;99.90;;;;;;5015160;28;20140;-73
2021/08/31 02:23:05;;;;;;;40.45;20.00;;;13.60;99.90;;;;;;5014472;28;20030;-74
2021/08/31 02:25:31;;;;;;;33.88;19.80;;;13.60;99.90;;;;;;5015240;28;20033;-74
2021/08/31 02:27:57;;;;;;;37.78;19.65;;;13.60;99.90;;;;;;5015180;28;20045;-74
2021/08/31 02:30:23;;;;;;;38.80;20.95;;;13.60;99.90;;;;;;5014641;28;20022;-73
2021/08/31 02:32:49;;;;;;;43.13;19.70;;;13.60;99.90;;;;;;5014408;28;20029;-73
2021/08/31 02:35:16;;;;;;;36.70;19.80;;;13.50;99.90;;;;;;5015024;28;20137;-74
2021/08/31 02:37:41;;;;;;;39.67;18.90;;;13.50;99.90;;;;;;5014029;28;20056;-73
2021/08/31 02:40:07;;;;;;;41.35;20.02;;;13.50;99.90;;;;;;5014946;28;20017;-74
2021/08/31 02:42:33;;;;;;;41.00;20.23;;;13.50;99.90;;;;;;5014557;28;20053;-73
2021/08/31 02:44:58;;;;;;;44.78;20.15;;;13.50;99.90;;;;;;5014325;28;20018;-74
2021/08/31 02:47:24;;;;;;;43.40;21.80;;;13.50;99.90;;;;;;5015144;28;20092;-76
2021/08/31 02:49:53;;;;;;;39.03;20.48;;;13.50;99.90;;;;;;5014227;28;20050;-73
2021/08/31 02:52:18;;;;;;;37.45;18.88;;;13.40;99.90;;;;;;5013917;28;20026;-74
2021/08/31 02:54:44;;;;;;;42.45;21.27;;;13.40;99.90;;;;;;5014298;28;20466;-75
2021/08/31 02:57:09;;;;;;;39.33;20.13;;;13.40;99.90;;;;;;5014289;28;20041;-74
2021/08/31 02:59:35;;;;;;;31.23;17.05;;;13.40;99.90;;;;;;5013574;28;20033;-74
2021/08/31 03:02:09;;;;;;;38.38;19.67;;;13.40;99.90;;;;;;5014690;28;20036;-74
2021/08/31 03:04:40;;;;;;;38.38;19.08;;;13.40;99.90;;;;;;5014182;28;20022;-75
2021/08/31 03:07:06;;;;;;;;;;;13.40;99.90;;;;;;5014007;28;20095;-75
2021/08/31 03:09:32;;;;;;;38.90;20.00;;;13.40;99.90;;;;;;5014571;28;19906;-73
2021/08/31 03:11:58;;;;;;;31.67;18.88;;;13.40;99.90;;;;;;5014483;28;20164;-74
2021/08/31 03:14:23;;;;;;;35.67;19.20;;;13.40;99.90;;;;;;5013730;28;20120;-74
2021/08/31 03:16:50;;;;;;;37.75;20.05;;;13.30;99.90;;;;;;5013921;28;20133;-74
2021/08/31 03:19:23;;;;;;;34.25;19.33;;;13.40;99.90;;;;;;5013653;28;20032;-74
2021/08/31 03:21:48;;;;;;;41.25;20.63;;;13.40;99.90;;;;;;5014311;28;20092;-74
2021/08/31 03:24:15;;;;;;;34.60;19.70;;;13.30;99.90;;;;;;5014372;28;20054;-75
2021/08/31 03:26:47;;;;;;;35.42;20.77;;;13.40;99.90;;;;;;5012987;28;20041;-74
2021/08/31 03:29:33;;;;;;;40.25;20.23;;;13.30;99.90;;;;;;5014362;28;20021;-74
2021/08/31 03:31:58;;;;;;;46.95;21.58;;;13.30;99.90;;;;;;5012658;28;20030;-74
2021/08/31 03:34:24;;;;;;;38.83;21.23;;;13.30;99.90;;;;;;5012089;28;20048;-74
2021/08/31 03:36:50;;;;;;;40.05;20.20;;;13.30;99.90;;;;;;5014055;28;20036;-75
2021/08/31 03:39:16;;;;;;;40.22;21.48;;;13.20;99.90;;;;;;5014700;28;20100;-76
2021/08/31 03:41:41;;;;;;;43.55;21.48;;;13.20;99.90;;;;;;5013378;28;20117;-76
2021/08/31 03:44:07;;;;;;;37.20;22.45;;;13.20;99.90;;;;;;5013926;28;20355;-76
2021/08/31 03:46:33;;;;;;;48.13;22.77;;;13.20;99.90;;;;;;5013542;28;20466;-77
2021/08/31 03:48:58;;;;;;;35.53;20.80;;;13.20;99.90;;;;;;5016553;28;20561;-76
2021/08/31 03:51:27;;;;;;;40.05;21.02;;;13.10;99.90;;;;;;5014286;28;20017;-77
2021/08/31 03:53:52;;;;;;;32.80;20.92;;;13.20;99.90;;;;;;5014014;28;20527;-75
2021/08/31 03:56:18;;;;;;;43.53;22.73;;;13.10;99.90;;;;;;5012985;28;20021;-76
2021/08/31 03:58:43;;;;;;;36.75;21.50;;;13.10;99.90;;;;;;5013738;28;20022;-75
2021/08/31 04:01:09;;;;;;;39.88;21.77;;;13.10;99.90;;;;;;5017316;28;20022;-77
2021/08/31 04:03:34;;;;;;;41.15;19.63;;;13.10;99.90;;;;;;5013432;28;20026;-74
2021/08/31 04:06:00;;;;;;;35.95;21.17;;;13.00;99.90;;;;;;5013786;28;20084;-76
2021/08/31 04:08:26;;;;;;;38.72;21.15;;;13.00;99.90;;;;;;5012250;28;20034;-76
2021/08/31 04:10:51;;;;;;;37.88;22.40;;;13.00;99.90;;;;;;5013158;28;20022;-77
2021/08/31 04:13:18;;;;;;;44.70;20.90;;;13.10;99.90;;;;;;5013305;28;20025;-76
2021/08/31 04:15:48;;;;;;;40.95;22.38;;;13.00;99.90;;;;;;5012459;28;20033;-77
2021/08/31 04:18:14;;;;;;;37.35;21.08;;;13.00;99.90;;;;;;5013433;28;20092;-77
2021/08/31 04:20:39;;;;;;;45.33;22.58;;;13.00;99.90;;;;;;5013139;28;20474;-76
2021/08/31 04:23:05;;;;;;;38.88;21.02;;;13.00;99.90;;;;;;5012302;28;20109;-76
2021/08/31 04:25:31;;;;;;;37.95;20.90;;;13.00;99.90;;;;;;5009194;28;20057;-76
2021/08/31 04:27:56;;;;;;;33.78;20.15;;;13.00;99.90;;;;;;5013113;28;20486;-77
2021/08/31 04:30:22;;;;;;;35.35;19.52;;;13.00;99.90;;;;;;5012181;28;20076;-76
2021/08/31 04:32:47;;;;;;;24.85;17.55;;;12.90;99.90;;;;;;5013033;28;20021;-77
2021/08/31 04:35:13;;;;;;;34.25;16.13;;;12.90;99.90;;;;;;5013032;28;20029;-75
2021/08/31 04:37:38;;;;;;;34.15;17.48;;;12.80;99.90;;;;;;5011949;28;20069;-76
2021/08/31 04:40:05;;;;;;;24.60;16.48;;;12.70;99.90;;;;;;5013059;28;20030;-75
2021/08/31 04:42:30;;;;;;;27.58;15.02;;;12.70;99.90;;;;;;5012328;28;20026;-77
2021/08/31 04:44:56;;;;;;;23.20;15.27;;;12.70;99.90;;;;;;5011675;28;20064;-76
2021/08/31 04:47:23;;;;;;;23.95;15.93;;;12.60;99.90;;;;;;5012416;28;20041;-77
2021/08/31 04:49:48;;;;;;;26.73;16.80;;;12.70;99.90;;;;;;5012068;28;20413;-77
2021/08/31 04:52:14;;;;;;;26.08;16.42;;;12.60;99.90;;;;;;5011939;28;20044;-76
2021/08/31 04:54:40;;;;;;;23.92;14.85;;;12.70;99.90;;;;;;5011937;28;20102;-76
2021/08/31 04:57:06;;;;;;;29.73;15.98;;;12.60;99.90;;;;;;5012722;28;20033;-75
2021/08/31 04:59:31;;;;;;;20.70;14.02;;;12.60;99.90;;;;;;5011454;28;20029;-75
2021/08/31 05:01:57;;;;;;;26.98;15.43;;;12.60;99.90;;;;;;5013057;28;20069;-76
2021/08/31 05:04:28;;;;;;;25.73;15.10;;;12.60;99.90;;;;;;5012636;28;20100;-76
2021/08/31 05:06:54;;;;;;;25.42;15.45;;;12.70;99.90;;;;;;4999019;28;20052;-76
2021/08/31 05:09:19;;;;;;;26.38;16.67;;;12.70;99.90;;;;;;5012590;28;20112;-76
2021/08/31 05:11:45;;;;;;;25.13;15.75;;;12.70;99.90;;;;;;5011782;28;20423;-75
2021/08/31 05:14:10;;;;;;;35.92;15.07;;;12.80;99.90;;;;;;5013017;28;20072;-77
2021/08/31 05:16:37;;;;;;;33.95;15.57;;;12.80;99.90;;;;;;5012560;28;20536;-76
2021/08/31 05:19:03;;;;;;;32.30;16.40;;;12.90;99.90;;;;;;5012125;28;20026;-75
2021/08/31 05:21:29;;;;;;;30.50;14.65;;;12.90;99.90;;;;;;5012134;28;20462;-76
2021/08/31 05:23:56;;;;;;;30.42;16.75;;;13.00;99.90;;;;;;5012622;28;20030;-77
2021/08/31 05:26:21;;;;;;;27.75;16.30;;;13.00;99.90;;;;;;5011817;28;20036;-76
2021/08/31 05:28:47;;;;;;;39.38;16.35;;;13.00;99.90;;;;;;5009620;28;20037;-76
2021/08/31 05:31:12;;;;;;;28.77;15.70;;;13.10;99.90;;;;;;5012605;28;20413;-77
2021/08/31 05:33:38;;;;;;;38.00;17.92;;;13.10;99.90;;;;;;4993975;28;20022;-76
2021/08/31 05:36:03;;;;;;;37.30;16.92;;;13.20;99.90;;;;;;4995857;28;20029;-76
2021/08/31 05:38:29;;;;;;;31.52;15.80;;;13.20;99.90;;;;;;4994641;28;20046;-76
2021/08/31 05:40:54;;;;;;;34.05;17.17;;;13.30;99.90;;;;;;4994599;28;20037;-77
2021/08/31 05:43:20;;;;;;;29.58;15.02;;;13.40;99.90;;;;;;4995994;28;20030;-76
2021/08/31 05:45:46;;;;;;;37.58;16.15;;;13.40;99.90;;;;;;4995132;28;20406;-75
2021/08/31 05:48:11;;;;;;;26.10;14.38;;;13.50;99.90;;;;;;4991694;28;20035;-75
2021/08/31 05:50:37;;;;;;;32.85;14.57;;;13.50;99.90;;;;;;4994048;28;20439;-75
2021/08/31 05:53:03;;;;;;;24.77;14.25;;;13.60;99.90;;;;;;5006743;28;20505;-76
2021/08/31 05:55:28;;;;;;;32.60;14.45;;;13.60;99.90;;;;;;5008743;28;20375;-75
2021/08/31 05:57:54;;;;;;;34.97;15.57;;;13.70;99.90;;;;;;5011314;28;20030;-76
2021/08/31 06:00:20;;;;;;;29.45;14.48;;;13.70;99.90;;;;;;5008716;28;20823;-75
2021/08/31 06:02:45;;;;;;;31.08;14.13;;;13.80;99.90;;;;;;5007583;28;20121;-76
2021/08/31 06:05:12;;;;;;;29.40;14.63;;;13.80;99.90;;;;;;5010998;28;20014;-76
2021/08/31 06:07:41;;;;;;;27.85;13.35;;;13.90;99.90;;;;;;5010568;28;20493;-76
2021/08/31 06:10:08;;;;;;;26.02;14.13;;;13.90;99.90;;;;;;5010417;28;20025;-76
2021/08/31 06:12:33;;;;;;;26.63;13.90;;;14.00;99.90;;;;;;5009939;28;20455;-76
2021/08/31 06:15:02;;;;;;;30.98;14.38;;;14.00;99.90;;;;;;5010477;28;20104;-76
2021/08/31 06:17:27;;;;;;;25.60;13.52;;;14.10;99.90;;;;;;5010730;28;20043;-76
2021/08/31 06:19:53;;;;;;;32.50;13.68;;;14.10;99.90;;;;;;5013858;28;20022;-76
2021/08/31 06:22:19;;;;;;;28.83;12.75;;;14.20;99.90;;;;;;5008421;28;20041;-77
2021/08/31 06:24:46;;;;;;;30.52;13.50;;;14.20;99.90;;;;;;5011423;28;20461;-74
2021/08/31 06:27:12;;;;;;;28.05;12.75;;;14.30;99.90;;;;;;5011506;28;20042;-76
2021/08/31 06:29:37;;;;;;;24.95;13.25;;;14.40;99.90;;;;;;5012773;28;20069;-76
2021/08/31 06:32:04;;;;;;;24.67;11.75;;;14.40;99.90;;;;;;5014084;28;20025;-76
2021/08/31 06:34:29;;;;;;;24.13;11.82;;;14.50;99.90;;;;;;5012720;28;20046;-75
2021/08/31 06:36:55;;;;;;;25.27;13.02;;;14.60;99.90;;;;;;5007278;28;20057;-75
2021/08/31 06:39:20;;;;;;;35.53;12.82;;;14.60;99.90;;;;;;5011823;28;20026;-75
2021/08/31 06:41:46;;;;;;;23.75;10.80;;;14.70;99.90;;;;;;5014315;28;20294;-74
2021/08/31 06:44:11;;;;;;;29.15;12.10;;;14.80;99.90;;;;;;5013531;28;20014;-76
2021/08/31 06:46:37;;;;;;;22.90;11.32;;;14.90;99.90;;;;;;5013934;28;20026;-76
2021/08/31 06:49:03;;;;;;;25.33;10.50;;;15.00;99.90;;;;;;5011329;28;20128;-75
2021/08/31 06:51:29;;;;;;;27.48;10.63;;;15.10;99.90;;;;;;5012818;28;20462;-76
2021/08/31 06:53:54;;;;;;;25.48;10.40;;;15.20;99.90;;;;;;5013927;28;20494;-75
2021/08/31 06:56:23;;;;;;;22.02;8.65;;;15.30;99.90;;;;;;5013900;28;20366;-74
2021/08/31 06:58:48;;;;;;;22.73;11.07;;;15.40;99.90;;;;;;5013643;28;20620;-75
2021/08/31 07:01:14;;;;;;;20.50;9.50;;;15.40;99.90;;;;;;5014347;28;20080;-75
2021/08/31 07:03:40;;;;;;;23.17;9.85;;;15.50;99.90;;;;;;5015658;28;20022;-77
2021/08/31 07:06:06;;;;;;;25.02;9.25;;;15.50;99.90;;;;;;5018730;28;20030;-76
2021/08/31 07:08:31;;;;;;;24.90;9.77;;;15.60;99.90;;;;;;5017180;28;20140;-78
2021/08/31 07:10:57;;;;;;;19.63;9.82;;;15.60;99.90;;;;;;5014361;28;20092;-77
2021/08/31 07:13:23;;;;;;;17.40;9.10;;;15.70;99.90;;;;;;5010690;28;20052;-77
2021/08/31 07:15:49;;;;;;;18.95;8.52;;;15.80;99.90;;;;;;5013971;28;20018;-77
2021/08/31 07:18:14;;;;;;;23.67;9.68;;;15.80;99.90;;;;;;5012892;28;20028;-77
2021/08/31 07:20:40;;;;;;;27.23;9.38;;;15.80;99.90;;;;;;5013309;28;20030;-77
2021/08/31 07:23:06;;;;;;;27.65;9.82;;;15.90;99.90;;;;;;5013737;28;20076;-76
2021/08/31 07:25:32;;;;;;;23.23;9.10;;;16.00;99.90;;;;;;5012962;28;20024;-76
2021/08/31 07:27:58;;;;;;;27.60;10.20;;;16.00;99.90;;;;;;5014207;28;20137;-75
2021/08/31 07:30:23;;;;;;;21.58;9.45;;;16.10;99.90;;;;;;5014058;28;20014;-74
2021/08/31 07:32:49;;;;;;;21.98;9.98;;;16.10;99.90;;;;;;5013327;28;20026;-76
2021/08/31 07:35:14;;;;;;;25.23;9.32;;;16.10;99.90;;;;;;5013789;28;20022;-75
2021/08/31 07:37:40;;;;;;;22.67;9.07;;;16.20;99.90;;;;;;5013566;28;20049;-76
2021/08/31 07:40:09;;;;;;;21.85;8.98;;;16.20;99.90;;;;;;5014292;28;20022;-76
2021/08/31 07:42:36;;;;;;;22.20;9.10;;;16.30;99.90;;;;;;5012526;28;20037;-75
2021/08/31 07:45:06;;;;;;;21.20;9.52;;;16.40;99.90;;;;;;5014076;28;20037;-78
2021/08/31 07:47:32;;;;;;;17.88;8.63;;;16.50;99.90;;;;;;5012852;28;20625;-75
2021/08/31 07:49:57;;;;;;;18.10;7.82;;;16.50;99.90;;;;;;5005364;28;20485;-76
2021/08/31 07:52:24;;;;;;;19.08;8.45;;;16.50;99.90;;;;;;5005625;28;20029;-77
2021/08/31 07:54:49;;;;;;;15.98;8.48;;;16.60;99.90;;;;;;4996164;28;20031;-74
2021/08/31 07:57:15;;;;;;;19.58;8.30;;;16.60;99.90;;;;;;4995823;28;20041;-75
2021/08/31 07:59:40;;;;;;;24.38;9.30;;;16.70;99.90;;;;;;5005659;28;20478;-73
2021/08/31 08:02:06;;;;;;;12.65;7.30;;;16.70;99.90;;;;;;4994126;28;20121;-73
2021/08/31 08:04:32;;;;;;;15.52;7.97;;;16.90;99.90;;;;;;4998635;28;20089;-75
2021/08/31 08:06:57;;;;;;;19.48;7.78;;;16.90;99.90;;;;;;5003575;28;20389;-76
2021/08/31 08:09:23;;;;;;;20.30;7.80;;;17.00;99.90;;;;;;4998493;28;20083;-75
2021/08/31 08:11:49;;;;;;;19.85;8.70;;;17.10;99.90;;;;;;4998726;28;20451;-76
2021/08/31 08:14:14;;;;;;;21.50;7.65;;;17.20;99.90;;;;;;4998074;28;20364;-76
2021/08/31 08:16:40;;;;;;;15.30;7.55;;;17.20;99.90;;;;;;5003349;28;20477;-76
2021/08/31 08:19:06;;;;;;;16.55;7.05;;;17.40;99.90;;;;;;5005763;28;20066;-77
2021/08/31 08:21:31;;;;;;;17.85;7.18;;;17.40;99.90;;;;;;4999264;28;20027;-74
2021/08/31 08:23:57;;;;;;;13.57;7.15;;;17.60;99.90;;;;;;5004060;28;20041;-76
2021/08/31 08:26:22;;;;;;;11.23;6.65;;;17.60;99.90;;;;;;5001921;28;20018;-78
2021/08/31 08:28:48;;;;;;;16.15;7.43;;;17.60;99.90;;;;;;5000957;28;20505;-75
2021/08/31 08:31:14;;;;;;;16.60;7.30;;;17.70;99.90;;;;;;4998832;28;20429;-76
2021/08/31 08:33:39;;;;;;;20.40;7.32;;;17.70;99.90;;;;;;5005552;28;20430;-76
2021/08/31 08:36:07;;;;;;;16.65;6.65;;;17.80;99.90;;;;;;4992366;28;20030;-77
2021/08/31 08:38:33;;;;;;;22.90;7.45;;;17.90;99.90;;;;;;5010137;28;20025;-77
2021/08/31 08:41:04;;;;;;;17.42;6.47;;;18.00;99.90;;;;;;5005929;28;20018;-76
2021/08/31 08:43:30;;;;;;;11.70;6.35;;;18.10;99.90;;;;;;4999767;28;20029;-76
2021/08/31 08:45:57;;;;;;;16.27;7.03;;;18.30;99.90;;;;;;5004521;28;20026;-76
2021/08/31 08:48:24;;;;;;;12.45;6.38;;;18.40;99.90;;;;;;5003637;28;20136;-76
2021/08/31 08:50:53;;;;;;;14.68;6.53;;;18.60;99.90;;;;;;5002995;28;20046;-77
2021/08/31 08:53:19;;;;;;;13.63;5.95;;;18.70;99.90;;;;;;4999728;28;20049;-76
2021/08/31 08:55:45;;;;;;;20.83;7.43;;;18.70;99.90;;;;;;5004713;28;20475;-76
2021/08/31 08:58:11;;;;;;;11.80;7.03;;;18.60;99.90;;;;;;5001748;28;20026;-76
2021/08/31 09:01:04;;;;;;;14.90;6.55;;;18.60;99.90;;;;;;5007879;28;20087;-79
2021/08/31 09:03:33;;;;;;;14.32;6.32;;;18.70;99.90;;;;;;5007394;28;20018;-83
2021/08/31 09:06:10;;;;;;;11.55;6.13;;;18.80;99.90;;;;;;4996960;28;20030;-80
2021/08/31 09:08:40;;;;;;;10.45;5.82;;;18.90;99.90;;;;;;5012401;28;20124;-80
2021/08/31 09:11:16;;;;;;;19.47;6.63;;;18.80;99.90;;;;;;5012698;28;20046;-78
2021/08/31 09:13:41;;;;;;;14.90;6.75;;;18.80;99.90;;;;;;5011799;28;20355;-81
2021/08/31 09:16:24;;;;;;;14.88;6.15;;;18.80;99.90;;;;;;5012415;28;20014;-80
2021/08/31 09:18:51;;;;;;;10.13;6.00;;;18.80;99.90;;;;;;5011866;28;20065;-80
2021/08/31 09:21:25;;;;;;;12.45;5.90;;;18.80;99.90;;;;;;5012460;28;20374;-78
2021/08/31 09:23:55;;;;;;;10.38;6.25;;;18.80;99.90;;;;;;5012422;28;20026;-80
2021/08/31 09:26:33;;;;;;;14.43;6.25;;;18.80;99.90;;;;;;5012679;28;20025;-79
2021/08/31 09:29:04;;;;;;;10.98;5.32;;;18.70;99.90;;;;;;5012282;28;20038;-78
2021/08/31 09:31:41;;;;;;;;;;;18.80;99.90;;;;;;5012634;28;20065;-79
2021/08/31 09:34:07;;;;;;;17.13;6.10;;;18.80;99.90;;;;;;5011730;28;19996;-78
2021/08/31 09:36:35;;;;;;;18.20;6.20;;;18.80;99.90;;;;;;5012020;28;20454;-79
2021/08/31 09:39:06;;;;;;;10.73;6.15;;;18.80;99.90;;;;;;5011634;28;20101;-80
2021/08/31 09:41:40;;;;;;;14.55;6.03;;;18.80;99.90;;;;;;5012395;28;20033;-80
2021/08/31 09:44:24;;;;;;;11.95;5.60;;;18.80;99.90;;;;;;5010850;28;20497;-79
2021/08/31 09:47:00;;;;;;;14.55;6.10;;;18.90;99.90;;;;;;5004561;28;20026;-80
2021/08/31 09:49:41;;;;;;;15.30;5.95;;;19.00;99.90;;;;;;5004296;28;20140;-81
2021/08/31 09:52:14;;;;;;;8.35;5.57;;;19.00;99.90;;;;;;5014142;28;20328;-81
2021/08/31 09:54:48;;;;;;;13.15;5.68;;;19.00;99.90;;;;;;5011590;28;20084;-79
2021/08/31 09:57:41;;;;;;;9.82;5.60;;;19.10;99.90;;;;;;5013033;28;20451;-80
2021/08/31 10:00:09;;;;;;;12.27;5.60;;;19.20;99.90;;;;;;5011689;28;20014;-78
2021/08/31 10:02:36;;;;;;;13.82;5.75;;;19.20;99.90;;;;;;5011296;28;20490;-79
2021/08/31 10:05:04;;;;;;;18.58;6.93;;;19.20;99.90;;;;;;5007182;28;20034;-80
2021/08/31 10:07:31;;;;;;;14.18;6.90;;;19.20;99.90;;;;;;5012031;28;20073;-83
2021/08/31 10:09:59;;;;;;;12.05;5.70;;;19.40;99.90;;;;;;5012098;28;20072;-79
2021/08/31 10:12:26;;;;;;;15.48;6.88;;;19.40;99.90;;;;;;5015696;28;20033;-80
2021/08/31 10:14:54;;;;;;;16.10;7.50;;;19.40;99.90;;;;;;5014656;28;20060;-79
2021/08/31 10:17:23;;;;;;;9.88;6.07;;;19.30;99.90;;;;;;5015793;28;20057;-80
2021/08/31 10:19:51;;;;;;;16.98;6.22;;;19.30;99.90;;;;;;5015441;28;20058;-79
2021/08/31 10:22:17;;;;;;;15.27;5.57;;;19.20;99.90;;;;;;5014914;28;20022;-79
2021/08/31 10:24:47;;;;;;;14.98;6.13;;;19.20;99.90;;;;;;5005649;28;20027;-82
2021/08/31 10:27:34;;;;;;;13.80;6.25;;;19.20;99.90;;;;;;5011410;28;20108;-80
2021/08/31 10:30:14;;;;;;;11.20;5.82;;;19.20;99.90;;;;;;5014340;28;20494;-79
2021/08/31 10:32:41;;;;;;;;;;;19.20;99.90;;;;;;5014669;28;20026;-79
2021/08/31 10:35:07;;;;;;;10.15;5.25;;;19.20;99.90;;;;;;5014607;28;20420;-80
2021/08/31 10:37:47;;;;;;;14.07;5.82;;;19.30;99.90;;;;;;5014834;28;20112;-80
2021/08/31 10:40:32;;;;;;;8.77;5.72;;;19.40;99.90;;;;;;5015230;28;20041;-80
2021/08/31 10:42:58;;;;;;;12.10;6.88;;;19.50;99.90;;;;;;5013862;28;20109;-80
2021/08/31 10:45:51;;;;;;;13.82;6.05;;;19.50;99.90;;;;;;5016902;28;20026;-79
2021/08/31 10:48:23;;;;;;;19.73;6.63;;;19.50;99.90;;;;;;5013552;28;20034;-80
2021/08/31 10:51:17;;;;;;;17.15;6.53;;;19.50;99.90;;;;;;5015122;28;20054;-80
2021/08/31 10:53:48;;;;;;;9.30;5.97;;;19.70;99.90;;;;;;5010226;28;20030;-80
2021/08/31 10:56:23;;;;;;;15.90;6.32;;;19.90;99.90;;;;;;5013981;28;20049;-81
2021/08/31 10:58:59;;;;;;;11.38;6.20;;;19.90;99.90;;;;;;5014288;28;20469;-80
2021/08/31 11:01:27;;;;;;;11.88;5.20;;;19.90;99.90;;;;;;5014511;28;20018;-79
2021/08/31 11:03:55;;;;;;;12.00;5.45;;;19.90;99.90;;;;;;5013677;28;20021;-80
2021/08/31 11:06:26;;;;;;;13.95;6.05;;;19.80;99.90;;;;;;5014500;28;20084;-79
2021/08/31 11:09:13;;;;;;;13.43;5.57;;;19.80;99.90;;;;;;5014207;28;20051;-80
2021/08/31 11:11:41;;;;;;;12.32;6.13;;;19.90;99.90;;;;;;5013428;28;20030;-81
2021/08/31 11:14:07;;;;;;;10.82;5.50;;;19.90;99.90;;;;;;5014467;28;20558;-80
2021/08/31 11:16:38;;;;;;;14.15;6.82;;;19.60;99.90;;;;;;5013469;28;20108;-80
2021/08/31 11:19:26;;;;;;;15.98;5.50;;;19.60;99.90;;;;;;5013841;28;20474;-80
2021/08/31 11:21:53;;;;;;;8.68;5.60;;;19.60;99.90;;;;;;5014745;28;20502;-79
2021/08/31 11:24:19;;;;;;;11.45;5.25;;;19.70;99.90;;;;;;5015345;28;20014;-81
2021/08/31 11:26:45;;;;;;;14.00;6.28;;;19.90;99.90;;;;;;5011369;28;20427;-79
2021/08/31 11:29:12;;;;;;;11.65;6.25;;;20.00;99.90;;;;;;5014168;28;20025;-79
2021/08/31 11:31:39;;;;;;;8.55;5.70;;;20.20;99.90;;;;;;5010510;28;20485;-79
2021/08/31 11:34:10;;;;;;;11.70;5.75;;;20.30;99.90;;;;;;5014219;28;20021;-79
2021/08/31 11:36:38;;;;;;;16.27;6.57;;;20.30;99.90;;;;;;5014273;28;20026;-80
2021/08/31 11:39:06;;;;;;;15.95;5.88;;;20.40;99.90;;;;;;5014131;28;20068;-80
2021/08/31 11:41:38;;;;;;;9.95;5.35;;;20.30;99.90;;;;;;5013623;28;20026;-81
2021/08/31 11:44:21;;;;;;;13.60;5.55;;;20.10;99.90;;;;;;5014163;28;20069;-80
2021/08/31 11:46:56;;;;;;;12.52;4.88;;;20.00;99.90;;;;;;5011568;28;20041;-80
2021/08/31 11:49:30;;;;;;;9.30;6.07;;;20.10;99.90;;;;;;5013398;28;20041;-81
2021/08/31 11:52:14;;;;;;;13.60;5.70;;;20.20;99.90;;;;;;5013696;28;20072;-80
2021/08/31 11:54:45;;;;;;;13.40;5.90;;;20.20;99.90;;;;;;5011010;28;20022;-80
2021/08/31 11:57:11;;;;;;;19.42;5.45;;;20.20;99.90;;;;;;5013671;28;20033;-80
2021/08/31 11:59:53;;;;;;;13.80;5.80;;;20.20;99.90;;;;;;5006520;28;20113;-79
2021/08/31 12:02:26;;;;;;;11.55;6.22;;;20.00;99.90;;;;;;5012539;28;20022;-79
2021/08/31 12:04:58;;;;;;;14.55;5.38;;;19.90;99.90;;;;;;5014771;28;20018;-81
2021/08/31 12:07:26;;;;;;;13.18;5.50;;;20.00;99.90;;;;;;5014259;28;20185;-81
2021/08/31 12:09:56;;;;;;;12.13;5.65;;;20.10;99.90;;;;;;5015579;28;20390;-81
2021/08/31 12:12:22;;;;;;;18.60;5.90;;;20.10;99.90;;;;;;5011578;28;20025;-80
2021/08/31 12:14:49;;;;;;;15.88;5.68;;;20.10;99.90;;;;;;5009732;28;20363;-80
2021/08/31 12:17:45;;;;;;;18.20;6.35;;;20.20;99.90;;;;;;5012741;28;20029;-78
2021/08/31 12:20:16;;;;;;;10.60;5.40;;;20.20;99.90;;;;;;5012898;28;20088;-80
2021/08/31 12:22:45;;;;;;;16.92;5.45;;;20.40;99.90;;;;;;5012602;28;20029;-81
2021/08/31 12:25:11;;;;;;;10.57;5.65;;;20.60;99.90;;;;;;5001602;28;20037;-80
2021/08/31 12:27:46;;;;;;;13.77;6.47;;;20.70;99.90;;;;;;5012523;28;20069;-80
2021/08/31 12:30:14;;;;;;;19.02;6.32;;;20.90;99.90;;;;;;5012620;28;20053;-80
2021/08/31 12:32:41;;;;;;;15.63;6.25;;;21.20;99.90;;;;;;5011613;28;20033;-79
2021/08/31 12:35:30;;;;;;;12.13;5.28;;;21.20;99.90;;;;;;5011366;28;20034;-79
2021/08/31 12:38:17;;;;;;;8.63;4.30;;;21.20;99.90;;;;;;5011593;28;20026;-80